NCAR-RAP Real-Time Weather Data

Output produced by METARs form (10 April 2020  06:36 UTC)
found at http://weather.rap.ucar.edu/surface/
 
KCMH 100551Z 28012KT 10SM FEW110 SCT150 02/M02 A2976 RMK AO2 SLP082 T00221022 10061 20022 53006